createdAt,value
2018-10-12T00:01:56.825Z,98139.73
2018-10-12T00:04:26.910Z,98141.02
2018-10-12T00:06:56.749Z,98135.40
2018-10-12T00:09:26.541Z,98144.80
2018-10-12T00:11:56.219Z,98141.92
2018-10-12T00:14:25.980Z,98142.79
2018-10-12T00:16:55.802Z,98146.24
2018-10-12T00:19:25.385Z,98141.09
2018-10-12T00:21:55.419Z,98144.11
2018-10-12T00:24:25.309Z,98150.13
2018-10-12T00:26:55.054Z,98158.73
2018-10-12T00:29:24.729Z,98162.23
2018-10-12T00:31:54.432Z,98167.45
2018-10-12T00:34:24.120Z,98165.34
2018-10-12T00:36:53.823Z,98157.44
2018-10-12T00:39:23.562Z,98161.76
2018-10-12T00:41:53.342Z,98164.78
2018-10-12T00:44:23.093Z,98159.69
2018-10-12T00:46:52.835Z,98092.02
2018-10-12T00:49:22.639Z,98168.23
2018-10-12T00:51:52.443Z,98168.22
2018-10-12T00:54:22.164Z,98182.81
2018-10-12T00:56:51.927Z,98175.15
2018-10-12T00:59:21.675Z,98176.53
2018-10-12T01:01:51.386Z,98181.31
2018-10-12T01:04:21.071Z,98190.74
2018-10-12T01:06:50.752Z,98187.39
2018-10-12T01:09:20.517Z,98183.16
2018-10-12T01:11:50.239Z,98184.88
2018-10-12T01:14:19.877Z,98191.36
2018-10-12T01:16:49.672Z,98188.81
2018-10-12T01:19:19.308Z,98190.09
2018-10-12T01:21:49.120Z,98191.39
2018-10-12T01:24:18.900Z,98199.95
2018-10-12T01:26:48.543Z,98199.97
2018-10-12T01:29:18.364Z,98187.18
2018-10-12T01:31:48.064Z,98185.91
2018-10-12T01:34:17.845Z,98189.36
2018-10-12T01:36:47.483Z,98188.91
2018-10-12T01:39:17.348Z,98183.79
2018-10-12T01:41:47.054Z,98181.63
2018-10-12T01:44:16.757Z,98179.92
2018-10-12T01:46:46.578Z,98179.09
2018-10-12T01:49:16.312Z,98178.28
2018-10-12T01:51:46.120Z,98176.59
2018-10-12T01:54:15.768Z,98166.35
2018-10-12T01:56:45.504Z,98165.52
2018-10-12T01:59:15.177Z,98165.95
2018-10-12T02:01:44.950Z,98167.67
2018-10-12T02:04:14.631Z,98168.94
2018-10-12T02:06:44.207Z,98174.93
2018-10-12T02:09:13.851Z,98180.05
2018-10-12T02:11:43.562Z,98181.34
2018-10-12T02:14:13.270Z,98068.80
2018-10-12T02:16:42.912Z,98183.03
2018-10-12T02:19:12.726Z,98187.73
2018-10-12T02:21:42.606Z,98190.31
2018-10-12T02:24:12.309Z,98192.45
2018-10-12T02:26:41.958Z,98196.73
2018-10-12T02:29:11.563Z,98165.16
2018-10-12T02:31:41.506Z,98183.50
2018-10-12T02:34:11.182Z,98196.31
2018-10-12T02:36:40.868Z,98197.60
2018-10-12T02:39:12.730Z,98192.89
2018-10-12T02:41:42.385Z,98193.76
2018-10-12T02:44:12.369Z,98188.22
2018-10-12T02:46:42.064Z,98192.05
2018-10-12T02:49:11.720Z,98220.66
2018-10-12T02:51:41.452Z,98193.77
2018-10-12T02:54:11.005Z,98210.42
2018-10-12T02:56:40.771Z,98221.06
2018-10-12T02:59:10.468Z,98227.06
2018-10-12T03:01:40.080Z,98230.05
2018-10-12T03:04:10.280Z,98234.30
2018-10-12T03:06:39.998Z,98242.84
2018-10-12T03:09:11.399Z,98236.84
2018-10-12T03:11:41.242Z,98252.66
2018-10-12T03:14:11.049Z,98247.09
2018-10-12T03:16:40.699Z,98246.68
2018-10-12T03:19:10.436Z,98247.94
2018-10-12T03:21:40.088Z,98251.35
2018-10-12T03:24:09.726Z,98258.58
2018-10-12T03:26:39.557Z,98260.70
2018-10-12T03:29:09.754Z,98265.41
2018-10-12T03:31:39.610Z,98267.10
2018-10-12T03:34:09.384Z,98268.80
2018-10-12T03:36:39.303Z,98278.64
2018-10-12T03:39:09.301Z,98276.08
2018-10-12T03:41:39.035Z,98239.36
2018-10-12T03:44:08.825Z,98286.31
2018-10-12T03:46:38.587Z,98282.89
2018-10-12T03:49:08.332Z,98283.73
2018-10-12T03:51:38.191Z,98280.73
2018-10-12T03:54:07.887Z,98275.62
2018-10-12T03:56:58.385Z,98274.77
2018-10-12T03:59:28.028Z,98274.31
2018-10-12T04:01:57.677Z,98274.74
2018-10-12T04:04:27.440Z,98278.99
2018-10-12T04:06:57.023Z,98284.09
2018-10-12T04:09:26.621Z,98275.56
2018-10-12T04:11:56.313Z,98289.66
2018-10-12T04:14:25.928Z,98293.92
2018-10-12T04:16:55.649Z,98272.15
2018-10-12T04:19:25.358Z,98301.61
2018-10-12T04:21:55.004Z,98309.70
2018-10-12T04:24:24.576Z,98309.70
2018-10-12T04:26:54.186Z,98302.84
2018-10-12T04:29:23.789Z,98318.20
2018-10-12T04:31:53.475Z,98321.16
2018-10-12T04:34:23.123Z,98328.42
2018-10-12T04:36:52.724Z,98328.41
2018-10-12T04:39:43.929Z,98337.36
2018-10-12T04:42:14.093Z,98333.93
2018-10-12T04:44:43.668Z,98330.92
2018-10-12T04:47:13.330Z,98339.84
2018-10-12T04:49:42.958Z,98341.09
2018-10-12T04:52:12.729Z,98351.30
2018-10-12T04:54:42.295Z,98357.22
2018-10-12T04:57:11.877Z,98353.79
2018-10-12T04:59:41.763Z,98354.59
2018-10-12T05:02:11.244Z,98361.43
2018-10-12T05:04:40.675Z,98365.21
2018-10-12T05:07:10.098Z,98360.02
2018-10-12T05:09:39.668Z,98324.11
2018-10-12T05:12:09.561Z,98361.30
2018-10-12T05:14:39.036Z,98365.51
2018-10-12T05:17:08.926Z,98369.73
2018-10-12T05:19:38.355Z,98375.76
2018-10-12T05:22:07.860Z,98380.83
2018-10-12T05:24:37.192Z,98379.56
2018-10-12T05:27:06.929Z,98379.50
2018-10-12T05:29:36.340Z,98385.48
2018-10-12T05:32:05.745Z,98395.62
2018-10-12T05:34:35.167Z,98400.36
2018-10-12T05:37:04.706Z,98404.65
2018-10-12T05:39:34.229Z,98410.21
2018-10-12T05:42:03.642Z,98402.58
2018-10-12T05:44:33.057Z,98414.92
2018-10-12T05:47:02.476Z,98427.61
2018-10-12T05:49:52.867Z,98405.83
2018-10-12T05:52:22.594Z,98424.23
2018-10-12T05:54:52.352Z,98431.37
2018-10-12T05:57:22.090Z,98429.24
2018-10-12T05:59:51.652Z,98434.38
2018-10-12T06:02:21.280Z,98431.44
2018-10-12T06:04:50.903Z,98432.32
2018-10-12T06:07:20.657Z,98432.32
2018-10-12T06:09:50.678Z,98444.73
2018-10-12T06:12:20.306Z,98450.27
2018-10-12T06:14:49.956Z,98458.91
2018-10-12T06:17:19.644Z,98452.58
2018-10-12T06:19:49.244Z,98455.64
2018-10-12T06:22:18.950Z,98448.93
2018-10-12T06:24:48.651Z,98440.45
2018-10-12T06:27:18.289Z,98444.78
2018-10-12T06:29:47.872Z,98456.36
2018-10-12T06:32:17.581Z,98473.47
2018-10-12T06:34:47.184Z,98489.70
2018-10-12T06:37:16.797Z,98487.53
2018-10-12T06:39:46.507Z,98478.13
2018-10-12T06:42:16.127Z,98480.67
2018-10-12T06:44:45.736Z,98487.97
2018-10-12T06:47:15.651Z,98492.28
2018-10-12T06:49:45.241Z,98493.17
2018-10-12T06:52:14.868Z,98501.31
2018-10-12T06:54:44.520Z,98506.06
2018-10-12T06:57:14.107Z,98496.70
2018-10-12T06:59:43.816Z,98497.57
2018-10-12T07:02:17.580Z,98498.91
2018-10-12T07:04:48.085Z,98516.91
2018-10-12T07:07:18.129Z,98530.63
2018-10-12T07:09:47.734Z,98533.61
2018-10-12T07:12:17.443Z,98540.06
2018-10-12T07:14:47.111Z,98546.92
2018-10-12T07:17:16.762Z,98557.19
2018-10-12T07:19:46.374Z,98552.92
2018-10-12T07:22:16.149Z,98557.23
2018-10-12T07:24:45.773Z,98569.63
2018-10-12T07:27:15.407Z,98573.50
2018-10-12T07:29:45.115Z,98574.34
2018-10-12T07:32:14.690Z,98564.93
2018-10-12T07:34:44.329Z,98570.52
2018-10-12T07:37:14.120Z,98568.78
2018-10-12T07:39:43.756Z,98582.02
2018-10-12T07:42:13.419Z,98593.61
2018-10-12T07:44:43.030Z,98581.59
2018-10-12T07:47:12.639Z,98584.97
2018-10-12T07:49:42.287Z,98593.04
2018-10-12T07:52:11.986Z,98583.13
2018-10-12T07:54:41.808Z,98589.08
2018-10-12T07:57:14.495Z,98592.03
2018-10-12T07:59:44.864Z,98593.21
2018-10-12T08:02:14.805Z,98597.42
2018-10-12T08:04:44.433Z,98596.45
2018-10-12T08:07:14.163Z,98581.36
2018-10-12T08:09:44.011Z,98581.67
2018-10-12T08:12:13.662Z,98576.87
2018-10-12T08:14:43.377Z,98581.44
2018-10-12T08:17:13.184Z,98572.27
2018-10-12T08:19:42.916Z,98578.05
2018-10-12T08:22:12.640Z,98572.30
2018-10-12T08:24:42.293Z,98565.23
2018-10-12T08:27:12.252Z,98571.03
2018-10-12T08:29:41.530Z,98575.17
2018-10-12T08:32:11.252Z,98568.91
2018-10-12T08:34:40.857Z,98583.23
2018-10-12T08:37:10.533Z,98583.84
2018-10-12T08:39:40.080Z,98599.49
2018-10-12T08:42:09.671Z,98610.09
2018-10-12T08:44:39.280Z,98611.30
2018-10-12T08:47:09.090Z,98609.82
2018-10-12T08:49:38.801Z,98615.39
2018-10-12T08:52:08.520Z,98617.44
2018-10-12T08:54:38.227Z,98618.02
2018-10-12T08:57:07.933Z,98619.81
2018-10-12T08:59:37.634Z,98616.38
2018-10-12T09:02:07.908Z,98623.44
2018-10-12T09:04:37.588Z,98627.66
2018-10-12T09:07:07.386Z,98628.95
2018-10-12T09:09:37.002Z,98629.39
2018-10-12T09:12:06.641Z,98631.66
2018-10-12T09:14:36.319Z,98631.20
2018-10-12T09:17:06.023Z,98634.30
2018-10-12T09:19:35.733Z,98635.93
2018-10-12T09:22:05.347Z,98644.98
2018-10-12T09:24:34.984Z,98641.16
2018-10-12T09:27:04.598Z,98641.65
2018-10-12T09:29:34.269Z,98637.03
2018-10-12T09:32:03.919Z,98640.95
2018-10-12T09:34:33.504Z,98637.86
2018-10-12T09:37:03.139Z,98636.86
2018-10-12T09:39:32.712Z,98636.00
2018-10-12T09:42:02.444Z,98650.28
2018-10-12T09:44:32.161Z,98648.70
2018-10-12T09:47:01.937Z,98651.73
2018-10-12T09:49:31.544Z,98654.95
2018-10-12T09:52:01.260Z,98653.44
2018-10-12T09:54:30.972Z,98653.85
2018-10-12T09:57:11.421Z,98648.88
2018-10-12T09:59:41.096Z,98643.41
2018-10-12T10:02:16.128Z,98653.86
2018-10-12T10:04:45.773Z,98657.16
2018-10-12T10:07:15.483Z,98647.64
2018-10-12T10:09:45.090Z,98654.95
2018-10-12T10:12:14.803Z,98646.85
2018-10-12T10:14:44.418Z,98647.41
2018-10-12T10:17:14.032Z,98641.30
2018-10-12T10:19:43.669Z,98633.41
2018-10-12T10:22:13.325Z,98629.94
2018-10-12T10:24:43.022Z,98632.37
2018-10-12T10:27:12.565Z,98627.40
2018-10-12T10:29:42.170Z,98636.59
2018-10-12T10:32:11.778Z,98629.55
2018-10-12T10:34:41.356Z,98618.64
2018-10-12T10:37:11.096Z,98614.84
2018-10-12T10:39:40.695Z,98621.25
2018-10-12T10:42:10.350Z,98620.58
2018-10-12T10:44:40.057Z,98625.61
2018-10-12T10:47:09.679Z,98617.13
2018-10-12T10:49:39.326Z,98616.22
2018-10-12T10:52:09.030Z,98616.18
2018-10-12T10:54:38.623Z,98621.34
2018-10-12T10:57:08.322Z,98616.75
2018-10-12T10:59:37.968Z,98608.58
2018-10-12T11:02:07.698Z,98602.73
2018-10-12T11:04:37.461Z,98599.27
2018-10-12T11:07:07.120Z,98599.80
2018-10-12T11:09:36.708Z,98591.94
2018-10-12T11:12:06.475Z,98597.23
2018-10-12T11:14:36.028Z,98593.36
2018-10-12T11:17:05.735Z,98591.66
2018-10-12T11:19:35.370Z,98594.66
2018-10-12T11:22:05.052Z,98591.72
2018-10-12T11:24:34.734Z,98593.77
2018-10-12T11:27:04.369Z,98593.57
2018-10-12T11:29:33.977Z,98591.09
2018-10-12T11:32:03.701Z,98585.38
2018-10-12T11:34:33.304Z,98590.45
2018-10-12T11:37:02.902Z,98585.01
2018-10-12T11:39:32.543Z,98586.83
2018-10-12T11:42:02.236Z,98580.31
2018-10-12T11:44:31.937Z,98586.72
2018-10-12T11:47:01.534Z,98584.55
2018-10-12T11:49:31.249Z,98579.69
2018-10-12T11:52:00.872Z,98583.01
2018-10-12T11:54:30.561Z,98575.09
2018-10-12T11:57:00.271Z,98575.77
2018-10-12T11:59:30.362Z,98575.41
2018-10-12T12:01:59.994Z,98577.64
2018-10-12T12:04:29.607Z,98582.30
2018-10-12T12:06:59.455Z,98578.56
2018-10-12T12:09:29.018Z,98577.39
2018-10-12T12:11:58.643Z,98579.62
2018-10-12T12:14:28.332Z,98570.79
2018-10-12T12:16:58.168Z,98559.61
2018-10-12T12:19:27.978Z,98568.42
2018-10-12T12:21:57.628Z,98572.30
2018-10-12T12:24:27.168Z,98567.98
2018-10-12T12:26:56.913Z,98580.91
2018-10-12T12:29:26.446Z,98575.46
2018-10-12T12:31:56.111Z,98570.61
2018-10-12T12:34:25.970Z,98574.38
2018-10-12T12:36:55.639Z,98567.04
2018-10-12T12:39:25.242Z,98575.83
2018-10-12T12:41:54.952Z,98567.55
2018-10-12T12:44:24.573Z,98567.73
2018-10-12T12:46:54.380Z,98560.34
2018-10-12T12:49:24.170Z,98565.20
2018-10-12T12:51:53.725Z,98561.47
2018-10-12T12:54:23.410Z,98557.95
2018-10-12T12:56:53.052Z,98562.38
2018-10-12T12:59:22.621Z,98564.02
2018-10-12T13:01:52.471Z,98561.12
2018-10-12T13:04:22.446Z,98559.77
2018-10-12T13:06:51.746Z,98565.45
2018-10-12T13:09:21.251Z,98564.13
2018-10-12T13:11:50.864Z,98561.27
2018-10-12T13:14:20.569Z,98567.80
2018-10-12T13:16:50.279Z,98565.33
2018-10-12T13:19:19.892Z,98558.40
2018-10-12T13:21:49.589Z,98559.55
2018-10-12T13:24:19.307Z,98565.84
2018-10-12T13:26:48.920Z,98561.23
2018-10-12T13:29:18.576Z,98566.14
2018-10-12T13:31:48.344Z,98569.80
2018-10-12T13:34:18.250Z,98571.52
2018-10-12T13:36:47.943Z,98570.12
2018-10-12T13:39:17.671Z,98580.86
2018-10-12T13:41:47.279Z,98579.89
2018-10-12T13:44:16.922Z,98580.83
2018-10-12T13:46:46.520Z,98583.00
2018-10-12T13:49:16.102Z,98588.97
2018-10-12T13:51:45.719Z,98588.78
2018-10-12T13:54:15.331Z,98591.60
2018-10-12T13:56:45.002Z,98586.20
2018-10-12T13:59:14.688Z,98589.08
2018-10-12T14:01:44.444Z,98588.57
2018-10-12T14:04:14.054Z,98593.03
2018-10-12T14:06:43.884Z,98586.75
2018-10-12T14:09:13.494Z,98591.39
2018-10-12T14:11:43.177Z,98594.91
2018-10-12T14:14:12.831Z,98587.70
2018-10-12T14:16:42.500Z,98586.24
2018-10-12T14:19:12.509Z,98589.39
2018-10-12T14:21:41.804Z,98589.32
2018-10-12T14:24:11.361Z,98591.56
2018-10-12T14:26:40.996Z,98588.23
2018-10-12T14:29:10.619Z,98584.38
2018-10-12T14:31:40.700Z,98586.52
2018-10-12T14:34:10.205Z,98586.14
2018-10-12T14:36:39.845Z,98585.91
2018-10-12T14:39:10.988Z,98582.45
2018-10-12T14:41:40.634Z,98583.02
2018-10-12T14:44:10.376Z,98578.04
2018-10-12T14:46:40.049Z,98579.73
2018-10-12T14:49:09.680Z,98581.95
2018-10-12T14:51:39.452Z,98580.50
2018-10-12T14:54:09.112Z,98576.73
2018-10-12T14:56:38.744Z,98583.11
2018-10-12T14:59:08.536Z,98579.55
2018-10-12T15:01:38.132Z,98586.59
2018-10-12T15:04:07.850Z,98590.40
2018-10-12T15:06:37.442Z,98591.17
2018-10-12T15:09:11.477Z,98596.98
2018-10-12T15:11:41.116Z,98599.38
2018-10-12T15:14:10.898Z,98598.50
2018-10-12T15:16:40.563Z,98599.60
2018-10-12T15:19:10.154Z,98605.58
2018-10-12T15:21:39.780Z,98605.69
2018-10-12T15:24:09.533Z,98603.98
2018-10-12T15:26:39.208Z,98605.59
2018-10-12T15:29:09.128Z,98608.55
2018-10-12T15:31:38.826Z,98610.41
2018-10-12T15:34:08.525Z,98615.05
2018-10-12T15:36:38.243Z,98612.30
2018-10-12T15:39:08.067Z,98616.91
2018-10-12T15:41:37.676Z,98618.09
2018-10-12T15:44:07.357Z,98620.72
2018-10-12T15:46:36.957Z,98623.33
2018-10-12T15:49:06.711Z,98626.05
2018-10-12T15:51:36.454Z,98628.27
2018-10-12T15:54:06.114Z,98633.12
2018-10-12T15:56:35.764Z,98627.81
2018-10-12T15:59:05.611Z,98634.84
2018-10-12T16:01:35.226Z,98640.33
2018-10-12T16:04:04.894Z,98640.63
2018-10-12T16:06:34.565Z,98642.00
2018-10-12T16:09:05.424Z,98636.69
2018-10-12T16:11:35.151Z,98642.63
2018-10-12T16:14:04.916Z,98642.50
2018-10-12T16:16:34.612Z,98642.78
2018-10-12T16:19:04.433Z,98597.80
2018-10-12T16:21:34.151Z,98630.72
2018-10-12T16:24:10.581Z,98636.91
2018-10-12T16:26:40.297Z,98637.00
2018-10-12T16:29:10.088Z,98628.28
2018-10-12T16:31:39.867Z,98524.42
2018-10-12T16:34:09.568Z,98626.98
2018-10-12T16:39:09.498Z,98622.42
2018-10-12T16:41:39.804Z,98627.45
2018-10-12T16:44:09.772Z,98633.61
2018-10-12T16:46:39.378Z,98641.26
2018-10-12T16:49:09.141Z,98635.50
2018-10-12T16:51:38.866Z,98640.65
2018-10-12T16:54:08.579Z,98644.09
2018-10-12T16:56:38.182Z,98642.73
2018-10-12T16:59:08.004Z,98645.86
2018-10-12T17:01:37.711Z,98652.56
2018-10-12T17:04:07.602Z,98659.86
2018-10-12T17:06:37.213Z,98653.52
2018-10-12T17:09:07.519Z,98652.21
2018-10-12T17:11:37.171Z,98656.72
2018-10-12T17:14:06.872Z,98655.41
2018-10-12T17:16:36.505Z,98662.45
2018-10-12T17:19:06.774Z,98669.81
2018-10-12T17:21:36.516Z,98663.81
2018-10-12T17:24:06.349Z,98660.11
2018-10-12T17:26:35.941Z,98662.97
2018-10-12T17:29:05.587Z,98660.52
2018-10-12T17:31:35.245Z,98662.97
2018-10-12T17:34:04.934Z,98660.51
2018-10-12T17:36:34.782Z,98660.97
2018-10-12T17:39:04.791Z,98655.78
2018-10-12T17:41:34.665Z,98661.17
2018-10-12T17:44:04.462Z,98659.71
2018-10-12T17:46:34.137Z,98672.73
2018-10-12T17:49:03.875Z,98672.23
2018-10-12T17:51:33.464Z,98675.59
2018-10-12T17:54:03.160Z,98684.71
2018-10-12T17:56:32.868Z,98681.27
2018-10-12T17:59:02.508Z,98682.48
2018-10-12T18:01:32.169Z,98686.38
2018-10-12T18:04:01.715Z,98684.16
2018-10-12T18:06:31.688Z,98693.00
2018-10-12T18:09:01.476Z,98690.58
2018-10-12T18:11:31.213Z,98688.96
2018-10-12T18:14:04.125Z,98693.06
2018-10-12T18:16:33.893Z,98692.56
2018-10-12T18:19:03.508Z,98691.04
2018-10-12T18:21:33.201Z,98694.70
2018-10-12T18:24:02.911Z,98690.02
2018-10-12T18:26:32.587Z,98693.69
2018-10-12T18:29:02.474Z,98693.19
2018-10-12T18:31:32.271Z,98689.69
2018-10-12T18:34:02.741Z,98697.84
2018-10-12T18:36:34.898Z,98700.45
2018-10-12T18:39:08.240Z,98698.34
2018-10-12T18:41:38.236Z,98698.86
2018-10-12T18:44:08.114Z,98698.58
2018-10-12T18:46:39.211Z,98706.42
2018-10-12T18:49:11.003Z,98717.59
2018-10-12T18:51:42.365Z,98713.74
2018-10-12T18:54:13.209Z,98715.28
2018-10-12T18:56:44.692Z,98722.25
2018-10-12T18:59:16.278Z,98722.53
2018-10-12T19:01:47.747Z,98726.28
2018-10-12T19:04:19.468Z,98723.52
2018-10-12T19:06:50.457Z,98723.36
2018-10-12T19:09:22.062Z,98724.61
2018-10-12T19:11:52.807Z,98726.35
2018-10-12T19:14:24.513Z,98727.24
2018-10-12T19:16:56.161Z,98728.94
2018-10-12T19:19:29.139Z,98731.88
2018-10-12T19:22:01.914Z,98734.52
2018-10-12T19:24:34.924Z,98725.91
2018-10-12T19:27:07.861Z,98731.48
2018-10-12T19:29:39.952Z,98729.34
2018-10-12T19:32:12.206Z,98727.16
2018-10-12T19:34:45.034Z,98727.77
2018-10-12T19:37:17.644Z,98720.58
2018-10-12T19:39:50.477Z,98729.06
2018-10-12T19:42:23.240Z,98729.58
2018-10-12T19:44:56.073Z,98731.39
2018-10-12T19:47:28.807Z,98731.48
2018-10-12T19:50:01.886Z,98731.59
2018-10-12T19:52:34.697Z,98726.56
2018-10-12T19:55:07.512Z,98733.09
2018-10-12T19:57:40.375Z,98732.80
2018-10-12T20:00:12.991Z,98728.14
2018-10-12T20:02:46.121Z,98738.13
2018-10-12T20:05:18.861Z,98739.52
2018-10-12T20:07:51.540Z,98741.30
2018-10-12T20:10:24.303Z,98739.20
2018-10-12T20:12:56.900Z,98737.94
2018-10-12T20:15:29.938Z,98740.08
2018-10-12T20:18:03.039Z,98745.24
2018-10-12T20:20:36.154Z,98738.79
2018-10-12T20:23:08.959Z,98743.98
2018-10-12T20:25:41.820Z,98738.81
2018-10-12T20:28:14.490Z,98745.30
2018-10-12T20:30:47.441Z,98749.31
2018-10-12T20:33:20.037Z,98754.56
2018-10-12T20:35:53.858Z,98759.80
2018-10-12T20:38:26.531Z,98759.03
2018-10-12T20:40:59.168Z,98760.80
2018-10-12T20:43:31.524Z,98762.17
2018-10-12T20:46:04.212Z,98766.13
2018-10-12T20:48:36.320Z,98763.59
2018-10-12T20:51:08.718Z,98762.73
2018-10-12T20:53:41.104Z,98761.86
2018-10-12T20:56:12.517Z,98756.67
2018-10-12T20:58:43.445Z,98756.64
2018-10-12T21:01:14.334Z,98755.41
2018-10-12T21:03:45.365Z,98757.98
2018-10-12T21:06:16.323Z,98760.13
2018-10-12T21:08:46.402Z,98749.42
2018-10-12T21:11:16.792Z,98758.85
2018-10-12T21:13:47.228Z,98759.42
2018-10-12T21:16:17.053Z,98754.72
2018-10-12T21:18:47.024Z,98759.03
2018-10-12T21:21:17.292Z,98758.73
2018-10-12T21:23:47.012Z,98755.38
2018-10-12T21:26:17.460Z,98757.11
2018-10-12T21:28:47.550Z,98755.81
2018-10-12T21:31:17.263Z,98761.41
2018-10-12T21:33:46.868Z,98759.73
2018-10-12T21:36:16.579Z,98754.14
2018-10-12T21:38:47.431Z,98759.29
2018-10-12T21:41:17.206Z,98761.95
2018-10-12T21:43:46.932Z,98761.13
2018-10-12T21:46:16.642Z,98753.40
2018-10-12T21:48:46.327Z,98754.67
2018-10-12T21:51:15.965Z,98756.86
2018-10-12T21:53:45.668Z,98762.88
2018-10-12T21:56:15.356Z,98760.34
2018-10-12T21:58:45.645Z,98757.77
2018-10-12T22:01:15.358Z,98755.62
2018-10-12T22:03:45.792Z,98754.73
2018-10-12T22:06:15.455Z,98757.30
2018-10-12T22:08:57.537Z,98753.45
2018-10-12T22:11:27.251Z,98746.56
2018-10-12T22:13:56.959Z,98744.88
2018-10-12T22:16:26.586Z,98744.48
2018-10-12T22:18:56.160Z,98743.59
2018-10-12T22:21:25.815Z,98741.02
2018-10-12T22:23:55.437Z,98747.50
2018-10-12T22:26:25.124Z,98738.95
2018-10-12T22:28:54.755Z,98739.85
2018-10-12T22:31:24.348Z,98734.30
2018-10-12T22:33:54.037Z,98735.14
2018-10-12T22:36:23.750Z,98723.97
2018-10-12T22:38:53.375Z,98729.52
2018-10-12T22:41:22.953Z,98726.53
2018-10-12T22:43:52.572Z,98727.39
2018-10-12T22:46:22.295Z,98720.95
2018-10-12T22:48:51.894Z,98725.68
2018-10-12T22:51:21.634Z,98723.98
2018-10-12T22:53:51.222Z,98730.44
2018-10-12T22:56:20.970Z,98721.88
2018-10-12T22:58:50.609Z,98722.31
2018-10-12T23:01:20.357Z,98724.05
2018-10-12T23:03:49.968Z,98726.20
2018-10-12T23:06:19.573Z,98727.48
2018-10-12T23:08:49.297Z,98725.34
2018-10-12T23:11:18.979Z,98724.06
2018-10-12T23:13:48.591Z,98720.66
2018-10-12T23:16:18.273Z,98721.52
2018-10-12T23:18:47.942Z,98724.92
2018-10-12T23:21:17.612Z,98721.93
2018-10-12T23:23:47.324Z,98721.52
2018-10-12T23:26:17.029Z,98726.23
2018-10-12T23:28:46.697Z,98730.11
2018-10-12T23:31:16.244Z,98724.12
2018-10-12T23:34:03.534Z,98720.28
2018-10-12T23:36:33.251Z,98722.00
2018-10-12T23:39:03.412Z,98722.41
2018-10-12T23:41:33.050Z,98721.98
2018-10-12T23:44:02.672Z,98729.26
2018-10-12T23:46:32.365Z,98722.41
2018-10-12T23:49:02.035Z,98723.27
2018-10-12T23:51:31.645Z,98718.13
2018-10-12T23:54:01.590Z,98721.56
2018-10-12T23:56:31.375Z,98722.41
2018-10-12T23:59:00.975Z,98718.98
